Time;durP1;ratioP1;P1;durP2;ratioP2;P2;SDS_P1;SDS_P2;PMS_P1;PMS_P2;Temp;Humidity;BMP_temperature;BMP_pressure;BME280_temperature;BME280_humidity;BME280_pressure;Samples;Min_cycle;Max_cycle;Signal;HPM_P1;HPM_P2
2024/01/16 00:00:12;;;;;;;0.82;0.63;;;19.10;52.20;;;;;;5040330;28;20092;-68
2024/01/16 00:02:38;;;;;;;0.75;0.55;;;19.10;52.20;;;;;;5042088;28;20029;-68
2024/01/16 00:05:04;;;;;;;0.80;0.60;;;19.10;52.20;;;;;;5037470;28;20029;-68
2024/01/16 00:07:29;;;;;;;1.15;0.60;;;19.00;52.10;;;;;;5043156;28;20037;-69
2024/01/16 00:09:55;;;;;;;0.60;0.50;;;19.10;52.10;;;;;;5041363;28;20071;-69
2024/01/16 00:12:21;;;;;;;0.85;0.70;;;19.00;52.10;;;;;;5039125;28;20049;-69
2024/01/16 00:14:46;;;;;;;0.80;0.50;;;19.10;52.20;;;;;;5038108;28;20422;-69
2024/01/16 00:17:12;;;;;;;1.20;0.70;;;19.10;52.20;;;;;;5040816;28;20060;-69
2024/01/16 00:19:37;;;;;;;1.02;0.70;;;19.10;52.70;;;;;;5041243;28;20802;-69
2024/01/16 00:22:04;;;;;;;1.00;0.70;;;19.00;52.10;;;;;;5040272;28;20090;-69
2024/01/16 00:24:30;;;;;;;0.65;0.55;;;19.00;52.30;;;;;;5041167;28;20032;-69
2024/01/16 00:26:56;;;;;;;0.88;0.60;;;19.00;52.10;;;;;;5040686;28;20034;-69
2024/01/16 00:29:22;;;;;;;0.93;0.57;;;19.00;52.10;;;;;;5038433;28;20037;-69
2024/01/16 00:31:47;;;;;;;1.50;0.70;;;19.00;52.20;;;;;;5039566;28;20036;-69
2024/01/16 00:34:13;;;;;;;1.73;0.70;;;19.00;52.60;;;;;;5040936;28;20869;-69
2024/01/16 00:36:39;;;;;;;1.40;0.60;;;19.00;52.10;;;;;;5038474;28;20381;-69
2024/01/16 00:39:04;;;;;;;0.50;0.50;;;19.00;52.10;;;;;;5040958;28;20044;-69
2024/01/16 00:41:30;;;;;;;0.88;0.52;;;19.00;52.10;;;;;;5037138;28;20041;-69
2024/01/16 00:43:56;;;;;;;0.85;0.57;;;19.00;52.10;;;;;;5036427;28;20077;-69
2024/01/16 00:46:22;;;;;;;0.75;0.60;;;18.90;52.60;;;;;;5039640;28;20112;-69
2024/01/16 00:48:48;;;;;;;0.63;0.60;;;18.90;52.00;;;;;;5041058;28;20499;-69
2024/01/16 00:51:13;;;;;;;1.05;0.70;;;18.90;52.00;;;;;;5041612;28;20017;-69
2024/01/16 00:53:43;;;;;;;0.70;0.50;;;18.90;52.10;;;;;;5039624;28;20048;-69
2024/01/16 00:56:08;;;;;;;;;;;18.90;52.10;;;;;;5038867;28;20034;-69
2024/01/16 00:58:34;;;;;;;0.75;0.60;;;18.90;52.10;;;;;;5033248;28;19909;-69
2024/01/16 01:01:00;;;;;;;0.77;0.50;;;18.90;52.10;;;;;;5040049;28;20029;-68
2024/01/16 01:03:26;;;;;;;0.63;0.60;;;18.90;52.10;;;;;;5038499;28;20049;-68
2024/01/16 01:05:51;;;;;;;1.08;0.60;;;18.90;52.10;;;;;;5039892;28;20059;-68
2024/01/16 01:08:17;;;;;;;0.90;0.60;;;18.80;52.00;;;;;;5040266;28;20056;-68
2024/01/16 01:10:43;;;;;;;0.93;0.60;;;18.80;52.00;;;;;;5036984;28;20025;-68
2024/01/16 01:13:09;;;;;;;0.95;0.60;;;18.80;52.00;;;;;;5040952;28;20029;-69
2024/01/16 01:15:34;;;;;;;0.90;0.70;;;18.80;52.10;;;;;;5021423;28;20116;-68
2024/01/16 01:18:00;;;;;;;0.95;0.50;;;18.80;52.00;;;;;;5039156;28;20029;-69
2024/01/16 01:20:26;;;;;;;1.08;0.70;;;18.90;52.00;;;;;;5038677;28;20029;-69
2024/01/16 01:22:52;;;;;;;0.70;0.50;;;18.80;52.00;;;;;;5040303;28;20195;-69
2024/01/16 01:25:17;;;;;;;0.75;0.68;;;18.80;52.00;;;;;;5038953;28;20044;-69
2024/01/16 01:27:43;;;;;;;0.50;0.50;;;18.80;52.00;;;;;;5036139;28;20036;-69
2024/01/16 01:30:10;;;;;;;1.48;0.75;;;18.80;52.00;;;;;;5035742;28;20122;-69
2024/01/16 01:32:36;;;;;;;1.10;0.63;;;18.80;52.00;;;;;;5039129;28;20043;-69
2024/01/16 01:35:02;;;;;;;1.00;0.60;;;18.80;52.00;;;;;;5037565;28;20021;-69
2024/01/16 01:37:27;;;;;;;1.35;0.65;;;18.70;52.00;;;;;;5039114;28;20037;-69
2024/01/16 01:39:53;;;;;;;0.73;0.60;;;18.70;52.00;;;;;;5040609;28;20504;-69
2024/01/16 01:42:18;;;;;;;1.15;0.60;;;18.70;51.90;;;;;;5038893;28;20017;-69
2024/01/16 01:44:44;;;;;;;1.23;0.70;;;18.70;52.00;;;;;;5036398;28;20162;-69
2024/01/16 01:47:09;;;;;;;0.70;0.60;;;18.70;52.00;;;;;;5036867;28;20024;-69
2024/01/16 01:49:36;;;;;;;0.80;0.60;;;18.80;52.00;;;;;;5039239;28;20469;-69
2024/01/16 01:52:04;;;;;;;1.27;0.70;;;18.70;51.90;;;;;;5035553;28;20029;-69
2024/01/16 01:54:32;;;;;;;0.93;0.60;;;18.70;52.40;;;;;;5038593;28;20013;-69
2024/01/16 01:56:57;;;;;;;0.80;0.68;;;18.70;51.90;;;;;;5040878;28;20489;-69
2024/01/16 01:59:24;;;;;;;1.23;0.70;;;18.70;52.00;;;;;;5037004;28;20033;-69
2024/01/16 02:01:52;;;;;;;0.88;0.60;;;18.70;51.90;;;;;;5038293;28;20100;-69
2024/01/16 02:04:19;;;;;;;1.52;0.70;;;18.70;51.90;;;;;;5038717;28;20534;-69
2024/01/16 02:06:45;;;;;;;1.48;0.70;;;18.70;52.00;;;;;;5038532;28;20107;-69
2024/01/16 02:09:13;;;;;;;0.73;0.60;;;18.70;51.90;;;;;;5038566;28;20497;-65
2024/01/16 02:11:42;;;;;;;1.02;0.80;;;18.60;51.80;;;;;;5039965;28;20025;-64
2024/01/16 02:14:09;;;;;;;0.50;0.50;;;18.60;51.80;;;;;;5034269;28;20045;-64
2024/01/16 02:16:39;;;;;;;0.90;0.70;;;18.60;51.90;;;;;;5036971;28;20030;-65
2024/01/16 02:19:06;;;;;;;0.68;0.60;;;18.60;51.80;;;;;;5038451;28;20397;-64
2024/01/16 02:21:48;;;;;;;0.70;0.50;;;18.60;51.90;;;;;;5035976;28;20556;-64
2024/01/16 02:24:15;;;;;;;0.70;0.60;;;18.60;51.80;;;;;;5040020;28;20036;-64
2024/01/16 02:26:41;;;;;;;0.90;0.60;;;18.60;51.80;;;;;;5038542;28;20368;-63
2024/01/16 02:29:06;;;;;;;0.60;0.60;;;18.60;52.40;;;;;;5035894;28;20029;-69
2024/01/16 02:31:33;;;;;;;1.13;0.70;;;18.60;51.80;;;;;;5035986;28;20028;-68
2024/01/16 02:33:59;;;;;;;1.35;0.70;;;18.60;51.80;;;;;;5036864;28;20040;-68
2024/01/16 02:36:25;;;;;;;1.00;0.70;;;18.50;51.80;;;;;;5036528;28;20766;-68
2024/01/16 02:38:51;;;;;;;0.93;0.40;;;18.60;51.90;;;;;;5038226;28;20045;-68
2024/01/16 02:41:17;;;;;;;0.77;0.60;;;18.50;51.80;;;;;;5038706;28;20057;-68
2024/01/16 02:43:43;;;;;;;1.00;0.60;;;18.50;51.90;;;;;;5036918;28;20525;-68
2024/01/16 02:46:10;;;;;;;0.77;0.60;;;18.50;51.90;;;;;;5035491;28;20033;-68
2024/01/16 02:48:36;;;;;;;0.80;0.60;;;18.50;51.90;;;;;;5037363;28;20042;-68
2024/01/16 02:51:03;;;;;;;1.05;0.70;;;18.50;51.90;;;;;;5037808;28;20041;-68
2024/01/16 02:53:29;;;;;;;0.60;0.52;;;18.50;51.90;;;;;;5037296;28;20034;-68
2024/01/16 02:55:55;;;;;;;0.98;0.60;;;18.50;51.90;;;;;;5034430;28;20044;-68
2024/01/16 02:58:21;;;;;;;1.02;0.70;;;18.50;51.90;;;;;;5038213;28;20087;-68
2024/01/16 03:00:47;;;;;;;1.25;0.77;;;18.50;51.90;;;;;;5038075;28;20033;-68
2024/01/16 03:03:14;;;;;;;0.95;0.60;;;18.50;52.50;;;;;;5037114;28;20071;-68
2024/01/16 03:05:40;;;;;;;1.33;0.60;;;18.50;52.00;;;;;;5035991;28;20032;-68
2024/01/16 03:08:06;;;;;;;1.10;0.70;;;18.50;52.00;;;;;;5037170;28;20041;-68
2024/01/16 03:10:32;;;;;;;1.17;0.70;;;18.50;52.00;;;;;;5040370;28;20064;-68
2024/01/16 03:12:58;;;;;;;1.02;0.70;;;18.40;52.00;;;;;;5037368;28;20088;-68
2024/01/16 03:15:24;;;;;;;0.88;0.70;;;18.40;52.00;;;;;;5037082;28;20036;-68
2024/01/16 03:17:50;;;;;;;1.15;0.68;;;18.40;52.00;;;;;;5038271;28;20033;-68
2024/01/16 03:20:17;;;;;;;0.95;0.70;;;18.40;52.00;;;;;;5038618;28;20036;-69
2024/01/16 03:22:44;;;;;;;0.65;0.52;;;18.40;52.00;;;;;;5036566;28;20053;-69
2024/01/16 03:25:12;;;;;;;0.98;0.60;;;18.40;52.10;;;;;;5037290;28;20033;-69
2024/01/16 03:27:37;;;;;;;0.50;0.40;;;18.40;52.10;;;;;;5037523;28;20125;-69
2024/01/16 03:30:03;;;;;;;0.93;0.60;;;18.40;52.10;;;;;;5036255;28;20021;-68
2024/01/16 03:32:29;;;;;;;1.00;0.70;;;18.40;52.20;;;;;;5038505;28;20041;-69
2024/01/16 03:34:55;;;;;;;0.90;0.70;;;18.40;52.20;;;;;;5041326;28;20025;-68
2024/01/16 03:37:20;;;;;;;0.80;0.50;;;18.40;52.20;;;;;;5039200;28;20026;-65
2024/01/16 03:39:46;;;;;;;0.43;0.43;;;18.40;52.30;;;;;;5039882;28;20079;-65
2024/01/16 03:42:14;;;;;;;1.15;0.70;;;18.40;52.20;;;;;;5040136;28;20025;-64
2024/01/16 03:44:40;;;;;;;0.80;0.60;;;18.40;52.30;;;;;;5041830;28;20040;-65
2024/01/16 03:47:06;;;;;;;0.60;0.50;;;18.40;52.30;;;;;;5042436;28;20075;-65
2024/01/16 03:49:32;;;;;;;0.85;0.68;;;18.30;52.20;;;;;;5040806;28;20024;-65
2024/01/16 03:51:58;;;;;;;0.93;0.60;;;18.40;52.30;;;;;;5038735;28;20120;-65
2024/01/16 03:54:24;;;;;;;0.75;0.60;;;18.30;52.30;;;;;;5042268;28;20086;-65
2024/01/16 03:56:50;;;;;;;0.75;0.57;;;18.30;52.30;;;;;;5039649;28;20029;-66
2024/01/16 03:59:16;;;;;;;1.02;0.63;;;18.30;52.30;;;;;;5040703;28;20029;-64
2024/01/16 04:01:45;;;;;;;0.60;0.55;;;18.30;52.30;;;;;;5036628;28;20092;-65
2024/01/16 04:04:11;;;;;;;0.55;0.50;;;18.30;52.40;;;;;;5040935;28;20029;-65
2024/01/16 04:06:36;;;;;;;1.02;0.65;;;18.30;52.40;;;;;;5039129;28;20039;-64
2024/01/16 04:09:03;;;;;;;0.52;0.50;;;18.30;52.40;;;;;;5038253;28;20033;-65
2024/01/16 04:11:29;;;;;;;0.68;0.50;;;18.30;52.40;;;;;;5039882;28;20040;-65
2024/01/16 04:13:55;;;;;;;0.50;0.50;;;18.30;52.40;;;;;;5041124;28;20543;-64
2024/01/16 04:16:21;;;;;;;1.20;0.60;;;18.30;52.40;;;;;;5039550;28;20017;-66
2024/01/16 04:18:47;;;;;;;1.15;0.60;;;18.30;52.40;;;;;;5039617;28;20041;-66
2024/01/16 04:21:13;;;;;;;0.63;0.50;;;18.30;52.40;;;;;;5038587;28;20442;-65
2024/01/16 04:23:38;;;;;;;0.95;0.40;;;18.30;52.50;;;;;;5039385;28;20095;-65
2024/01/16 04:26:04;;;;;;;0.60;0.50;;;18.30;52.50;;;;;;5038342;28;20040;-63
2024/01/16 04:28:30;;;;;;;0.50;0.50;;;18.30;52.50;;;;;;5041330;28;20033;-69
2024/01/16 04:30:55;;;;;;;0.73;0.50;;;18.30;52.50;;;;;;5038241;28;20026;-69
2024/01/16 04:33:21;;;;;;;0.93;0.60;;;18.30;52.50;;;;;;5041519;28;20384;-69
2024/01/16 04:35:47;;;;;;;0.40;0.40;;;18.30;52.50;;;;;;5039781;28;20039;-69
2024/01/16 04:38:13;;;;;;;0.52;0.52;;;18.30;52.50;;;;;;5039270;28;20055;-69
2024/01/16 04:40:39;;;;;;;0.95;0.50;;;18.30;52.50;;;;;;5040202;28;20060;-69
2024/01/16 04:43:05;;;;;;;0.70;0.60;;;18.30;52.50;;;;;;5042061;28;20033;-69
2024/01/16 04:45:30;;;;;;;0.50;0.50;;;18.30;52.50;;;;;;5038547;28;20074;-69
2024/01/16 04:47:56;;;;;;;0.80;0.60;;;18.30;52.50;;;;;;5041294;28;20040;-68
2024/01/16 04:50:22;;;;;;;0.75;0.60;;;18.30;52.50;;;;;;5040511;28;20567;-68
2024/01/16 04:52:48;;;;;;;0.63;0.50;;;18.30;52.50;;;;;;5038450;28;20033;-68
2024/01/16 04:55:14;;;;;;;0.57;0.50;;;18.30;52.50;;;;;;5040658;28;20083;-68
2024/01/16 04:57:39;;;;;;;0.70;0.60;;;18.30;52.50;;;;;;5035296;28;20024;-68
2024/01/16 05:00:06;;;;;;;0.80;0.50;;;18.30;52.50;;;;;;5039272;28;20108;-68
2024/01/16 05:02:33;;;;;;;0.82;0.52;;;18.30;52.50;;;;;;5035831;28;20029;-68
2024/01/16 05:04:59;;;;;;;0.93;0.50;;;18.30;52.50;;;;;;5041184;28;20025;-68
2024/01/16 05:07:26;;;;;;;0.47;0.47;;;18.30;52.50;;;;;;5039423;28;20070;-68
2024/01/16 05:09:52;;;;;;;0.65;0.55;;;18.30;52.60;;;;;;5037180;28;20141;-68
2024/01/16 05:12:18;;;;;;;0.82;0.60;;;18.30;52.60;;;;;;5039406;28;20035;-68
2024/01/16 05:14:43;;;;;;;0.65;0.40;;;18.30;52.60;;;;;;5037632;28;20026;-68
2024/01/16 05:17:09;;;;;;;0.65;0.50;;;18.30;52.70;;;;;;5036531;28;20446;-68
2024/01/16 05:19:34;;;;;;;1.40;0.60;;;18.30;52.60;;;;;;5038118;28;20033;-68
2024/01/16 05:22:00;;;;;;;0.88;0.60;;;18.30;52.60;;;;;;5037073;28;20424;-67
2024/01/16 05:24:25;;;;;;;0.63;0.50;;;18.30;52.60;;;;;;5035682;28;20041;-68
2024/01/16 05:26:51;;;;;;;0.50;0.50;;;18.30;52.70;;;;;;5040869;28;20175;-68
2024/01/16 05:29:18;;;;;;;0.75;0.60;;;18.30;52.70;;;;;;5040333;28;20039;-67
2024/01/16 05:31:44;;;;;;;1.10;0.70;;;18.30;52.70;;;;;;5033346;28;20491;-68
2024/01/16 05:34:10;;;;;;;0.70;0.60;;;18.30;52.70;;;;;;5039129;28;20022;-68
2024/01/16 05:36:36;;;;;;;0.60;0.52;;;18.30;52.70;;;;;;5038588;28;20464;-68
2024/01/16 05:39:02;;;;;;;1.00;0.60;;;18.30;52.70;;;;;;5039382;28;20419;-67
2024/01/16 05:41:34;;;;;;;0.70;0.63;;;18.30;52.70;;;;;;5037880;28;20025;-67
2024/01/16 05:44:03;;;;;;;0.40;0.40;;;18.30;52.70;;;;;;5038365;28;20116;-67
2024/01/16 05:46:29;;;;;;;0.70;0.50;;;18.30;52.70;;;;;;5037320;28;20052;-68
2024/01/16 05:48:54;;;;;;;1.08;0.60;;;18.30;52.70;;;;;;5041208;28;20130;-67
2024/01/16 05:51:20;;;;;;;0.60;0.50;;;18.30;52.70;;;;;;5037490;28;20105;-67
2024/01/16 05:53:45;;;;;;;0.95;0.65;;;18.30;52.80;;;;;;5037651;28;20496;-67
2024/01/16 05:56:11;;;;;;;1.02;0.68;;;18.30;52.80;;;;;;5038452;28;20175;-67
2024/01/16 05:58:38;;;;;;;1.00;0.70;;;18.30;52.80;;;;;;5035983;28;20032;-66
2024/01/16 06:01:07;;;;;;;0.90;0.57;;;18.30;52.80;;;;;;5035676;28;20037;-64
2024/01/16 06:03:32;;;;;;;1.30;0.63;;;18.30;52.80;;;;;;5039879;28;20033;-65
2024/01/16 06:05:58;;;;;;;0.70;0.60;;;18.30;52.80;;;;;;5038536;28;20366;-64
2024/01/16 06:08:24;;;;;;;0.90;0.50;;;18.20;52.70;;;;;;5038166;28;20041;-65
2024/01/16 06:10:50;;;;;;;1.60;0.70;;;18.30;52.80;;;;;;5039425;28;20311;-65
2024/01/16 06:13:18;;;;;;;1.67;0.60;;;18.30;52.80;;;;;;5037792;28;20033;-66
2024/01/16 06:15:44;;;;;;;1.45;0.65;;;18.30;52.90;;;;;;5038881;28;20388;-65
2024/01/16 06:18:10;;;;;;;1.15;0.80;;;18.30;52.80;;;;;;5035723;28;20107;-65
2024/01/16 06:20:35;;;;;;;1.15;0.60;;;18.30;52.80;;;;;;5038005;28;20083;-64
2024/01/16 06:23:01;;;;;;;0.90;0.60;;;18.30;52.80;;;;;;5038242;28;20037;-64
2024/01/16 06:25:26;;;;;;;1.15;0.70;;;18.30;52.90;;;;;;5036942;28;20036;-63
2024/01/16 06:27:52;;;;;;;1.23;0.68;;;18.30;52.90;;;;;;5038603;28;20037;-64
2024/01/16 06:30:18;;;;;;;1.65;0.73;;;18.30;53.40;;;;;;5038586;28;20437;-64
2024/01/16 06:32:43;;;;;;;0.73;0.60;;;18.30;53.50;;;;;;5035146;28;20036;-64
2024/01/16 06:35:09;;;;;;;1.00;0.70;;;18.30;54.10;;;;;;5035942;28;20051;-64
2024/01/16 06:37:36;;;;;;;1.23;0.45;;;18.50;54.40;;;;;;5038001;28;20479;-65
2024/01/16 06:40:02;;;;;;;0.77;0.60;;;18.60;54.70;;;;;;5037398;28;20036;-64
2024/01/16 06:42:28;;;;;;;1.25;0.57;;;18.70;54.60;;;;;;5037672;28;20523;-64
2024/01/16 06:44:53;;;;;;;0.50;0.50;;;18.90;54.70;;;;;;5038993;28;20108;-64
2024/01/16 06:47:19;;;;;;;0.75;0.50;;;19.00;55.10;;;;;;5034953;28;20059;-67
2024/01/16 06:49:45;;;;;;;0.88;0.52;;;19.20;55.30;;;;;;5039079;28;20032;-67
2024/01/16 06:52:10;;;;;;;0.40;0.40;;;19.30;55.20;;;;;;5034696;28;20466;-67
2024/01/16 06:54:36;;;;;;;1.23;0.50;;;19.50;55.20;;;;;;5038148;28;20029;-67
2024/01/16 06:57:01;;;;;;;0.85;0.50;;;19.60;55.00;;;;;;5036454;28;20026;-66
2024/01/16 06:59:27;;;;;;;1.52;0.57;;;19.70;55.10;;;;;;5037397;28;20208;-67
2024/01/16 07:01:54;;;;;;;1.10;0.60;;;19.90;55.00;;;;;;5036146;28;20056;-67
2024/01/16 07:04:20;;;;;;;0.50;0.47;;;20.00;55.30;;;;;;5036274;28;20394;-67
2024/01/16 07:06:46;;;;;;;0.50;0.50;;;20.10;55.00;;;;;;5038893;28;20033;-67
2024/01/16 07:09:12;;;;;;;0.90;0.40;;;20.30;55.20;;;;;;5042823;28;20028;-69
2024/01/16 07:11:41;;;;;;;1.02;0.60;;;20.50;54.40;;;;;;5055907;28;20022;-69
2024/01/16 07:14:07;;;;;;;1.00;0.40;;;20.70;54.00;;;;;;5041758;28;20017;-69
2024/01/16 07:16:33;;;;;;;0.40;0.40;;;20.90;53.70;;;;;;5041140;28;20430;-69
2024/01/16 07:18:59;;;;;;;0.73;0.50;;;20.80;53.70;;;;;;5043231;28;20135;-69
2024/01/16 07:21:24;;;;;;;0.98;0.50;;;20.70;53.80;;;;;;5040970;28;20082;-69
2024/01/16 07:23:50;;;;;;;0.93;0.60;;;20.70;54.00;;;;;;5042140;28;20096;-69
2024/01/16 07:26:16;;;;;;;0.75;0.52;;;20.60;54.20;;;;;;5041192;28;20033;-69
2024/01/16 07:28:42;;;;;;;0.47;0.47;;;20.60;54.80;;;;;;5039821;28;20037;-69
2024/01/16 07:31:09;;;;;;;0.95;0.52;;;20.50;54.40;;;;;;5041236;28;20048;-69
2024/01/16 07:33:35;;;;;;;0.63;0.50;;;20.50;54.60;;;;;;5037177;28;20385;-69
2024/01/16 07:36:01;;;;;;;1.10;0.70;;;20.50;54.70;;;;;;5043737;28;20027;-69
2024/01/16 07:38:26;;;;;;;0.60;0.50;;;20.50;54.80;;;;;;5042412;28;20037;-69
2024/01/16 07:40:52;;;;;;;0.68;0.50;;;20.50;54.70;;;;;;5037923;28;20445;-69
2024/01/16 07:43:18;;;;;;;0.73;0.60;;;20.50;55.20;;;;;;5039511;28;20036;-69
2024/01/16 07:45:43;;;;;;;0.75;0.52;;;20.50;54.70;;;;;;5040984;28;20435;-69
2024/01/16 07:48:09;;;;;;;0.63;0.47;;;20.50;54.70;;;;;;5038500;28;20633;-69
2024/01/16 07:50:34;;;;;;;0.47;0.47;;;20.50;54.70;;;;;;5040045;28;20100;-68
2024/01/16 07:53:00;;;;;;;1.52;0.55;;;20.60;54.70;;;;;;5039159;28;20033;-68
2024/01/16 07:55:26;;;;;;;1.55;0.75;;;20.60;53.10;;;;;;5042039;28;20052;-68
2024/01/16 07:57:53;;;;;;;1.65;0.88;;;20.60;52.20;;;;;;5039289;28;20029;-68
2024/01/16 08:00:19;;;;;;;0.90;0.70;;;20.50;51.30;;;;;;5041983;28;20035;-67
2024/01/16 08:02:45;;;;;;;2.08;0.90;;;20.50;51.00;;;;;;5037973;28;20047;-67
2024/01/16 08:05:10;;;;;;;1.55;1.00;;;20.50;50.90;;;;;;5041949;28;20030;-66
2024/01/16 08:07:36;;;;;;;1.55;0.80;;;20.50;50.60;;;;;;5041342;28;20063;-67
2024/01/16 08:10:02;;;;;;;1.58;0.75;;;20.50;50.50;;;;;;5041218;28;20059;-67
2024/01/16 08:12:28;;;;;;;1.27;0.80;;;20.50;50.40;;;;;;5042209;28;20100;-65
2024/01/16 08:14:53;;;;;;;2.33;1.10;;;20.40;50.30;;;;;;5044852;28;20125;-66
2024/01/16 08:17:19;;;;;;;1.67;0.80;;;20.40;50.20;;;;;;5037728;28;20029;-73
2024/01/16 08:19:45;;;;;;;1.25;0.80;;;20.40;50.30;;;;;;5040487;28;20526;-69
2024/01/16 08:22:10;;;;;;;0.93;0.70;;;20.40;50.10;;;;;;5043125;28;20036;-68
2024/01/16 08:24:36;;;;;;;1.48;0.77;;;20.40;50.60;;;;;;5040895;28;20437;-68
2024/01/16 08:27:02;;;;;;;1.70;0.90;;;20.40;50.20;;;;;;5040816;28;20067;-68
2024/01/16 08:29:28;;;;;;;1.10;0.70;;;20.40;50.50;;;;;;5041020;28;20060;-68
2024/01/16 08:31:54;;;;;;;1.15;0.60;;;20.40;50.80;;;;;;5045887;28;20031;-68
2024/01/16 08:34:19;;;;;;;1.23;0.80;;;20.30;51.00;;;;;;5040537;28;20104;-68
2024/01/16 08:36:46;;;;;;;0.68;0.65;;;20.40;51.40;;;;;;5039728;28;20526;-69
2024/01/16 08:39:11;;;;;;;1.52;0.85;;;20.40;51.50;;;;;;5036249;28;20497;-69
2024/01/16 08:41:37;;;;;;;1.23;0.73;;;20.40;51.70;;;;;;5037072;28;20056;-69
2024/01/16 08:44:03;;;;;;;1.50;0.73;;;20.50;51.90;;;;;;5040358;28;20037;-68
2024/01/16 08:46:29;;;;;;;1.95;0.70;;;20.60;51.90;;;;;;5040693;28;20026;-69
2024/01/16 08:48:55;;;;;;;1.60;0.80;;;20.80;52.10;;;;;;5035218;28;20048;-68
2024/01/16 08:51:20;;;;;;;1.00;0.80;;;21.10;52.00;;;;;;5042228;28;20665;-69
2024/01/16 08:53:46;;;;;;;2.13;0.90;;;21.20;51.60;;;;;;5041625;28;20047;-69
2024/01/16 08:56:16;;;;;;;1.85;0.88;;;21.50;51.50;;;;;;5039665;28;20571;-69
2024/01/16 08:58:42;;;;;;;0.90;0.70;;;21.70;51.20;;;;;;5038907;28;20024;-69
2024/01/16 09:01:07;;;;;;;1.20;0.70;;;21.70;51.20;;;;;;5038602;28;20041;-69
2024/01/16 09:03:34;;;;;;;0.95;0.70;;;21.70;51.60;;;;;;5037328;28;20034;-69
2024/01/16 09:06:00;;;;;;;1.13;0.70;;;21.60;51.80;;;;;;5039817;28;20104;-69
2024/01/16 09:08:27;;;;;;;1.50;0.60;;;21.60;52.00;;;;;;5039571;28;20058;-67
2024/01/16 09:10:53;;;;;;;1.95;0.60;;;21.50;52.10;;;;;;5041570;28;20385;-67
2024/01/16 09:13:20;;;;;;;1.80;0.73;;;21.50;52.20;;;;;;5040173;28;20030;-67
2024/01/16 09:15:47;;;;;;;0.90;0.68;;;21.60;52.20;;;;;;5040194;28;20077;-67
2024/01/16 09:18:12;;;;;;;1.45;0.75;;;21.80;51.90;;;;;;5039641;28;20035;-68
2024/01/16 09:20:38;;;;;;;1.90;0.95;;;22.00;51.50;;;;;;5038480;28;20370;-68
2024/01/16 09:23:04;;;;;;;1.50;0.70;;;22.30;51.30;;;;;;5040411;28;20142;-68
2024/01/16 09:25:30;;;;;;;1.60;0.82;;;22.40;51.00;;;;;;5039876;28;20512;-67
2024/01/16 09:27:55;;;;;;;2.05;0.80;;;22.60;50.80;;;;;;5038631;28;20040;-64
2024/01/16 09:30:22;;;;;;;1.00;0.60;;;22.60;51.00;;;;;;5039550;28;20025;-65
2024/01/16 09:32:48;;;;;;;0.85;0.60;;;22.50;51.20;;;;;;5034944;28;20022;-65
2024/01/16 09:35:14;;;;;;;1.35;0.70;;;22.40;51.50;;;;;;5038870;28;20022;-64
2024/01/16 09:37:40;;;;;;;0.95;0.60;;;22.30;51.70;;;;;;5038730;28;20055;-64
2024/01/16 09:40:07;;;;;;;0.80;0.63;;;22.30;51.90;;;;;;5045176;28;20029;-64
2024/01/16 09:42:33;;;;;;;0.82;0.60;;;22.20;52.10;;;;;;5042729;28;20029;-65
2024/01/16 09:45:02;;;;;;;0.90;0.50;;;22.20;52.20;;;;;;5041646;28;20465;-65
2024/01/16 09:47:30;;;;;;;0.95;0.55;;;22.20;52.30;;;;;;5036712;28;20026;-67
2024/01/16 09:49:59;;;;;;;0.88;0.70;;;22.20;52.30;;;;;;5044915;28;20038;-64
2024/01/16 09:52:25;;;;;;;1.42;0.73;;;22.20;52.40;;;;;;5040260;28;20033;-64
2024/01/16 09:54:51;;;;;;;1.20;0.63;;;22.20;52.40;;;;;;5040170;28;20556;-65
2024/01/16 09:57:22;;;;;;;0.90;0.57;;;22.20;52.60;;;;;;5038425;28;20109;-66
2024/01/16 09:59:48;;;;;;;1.17;0.60;;;22.20;53.20;;;;;;5038153;28;20025;-64
2024/01/16 10:02:14;;;;;;;0.55;0.50;;;22.20;52.70;;;;;;5040077;28;20029;-65
2024/01/16 10:04:41;;;;;;;0.63;0.50;;;22.20;52.70;;;;;;5042165;28;20159;-65
2024/01/16 10:07:09;;;;;;;1.85;0.50;;;22.20;52.70;;;;;;5044707;28;20041;-64
2024/01/16 10:09:35;;;;;;;0.50;0.50;;;22.20;52.70;;;;;;5044606;28;20112;-64
2024/01/16 10:12:01;;;;;;;0.80;0.50;;;22.20;52.70;;;;;;5041529;28;20072;-64
2024/01/16 10:14:27;;;;;;;1.67;0.60;;;22.20;52.80;;;;;;5038549;28;20389;-64
2024/01/16 10:17:12;;;;;;;1.05;0.60;;;22.20;53.00;;;;;;5038508;28;20025;-65
2024/01/16 10:19:49;;;;;;;1.17;0.55;;;22.20;53.00;;;;;;5032503;28;20473;-69
2024/01/16 10:22:25;;;;;;;1.00;0.50;;;22.20;53.10;;;;;;5037909;28;20029;-69
2024/01/16 10:25:19;;;;;;;0.68;0.50;;;22.20;53.10;;;;;;5038808;28;20234;-69
2024/01/16 10:27:45;;;;;;;1.48;0.70;;;22.20;52.80;;;;;;5036157;28;20497;-69
2024/01/16 10:30:12;;;;;;;1.85;0.95;;;22.20;50.30;;;;;;5037840;28;20036;-69
2024/01/16 10:32:39;;;;;;;2.60;1.10;;;22.20;49.00;;;;;;5039547;28;20048;-69
2024/01/16 10:35:06;;;;;;;1.63;0.90;;;22.20;48.20;;;;;;5034185;28;20021;-69
2024/01/16 10:37:53;;;;;;;2.05;1.05;;;22.10;48.40;;;;;;5038928;28;20469;-64
2024/01/16 10:40:20;;;;;;;2.00;1.00;;;22.00;47.70;;;;;;5036842;28;20018;-69
2024/01/16 10:42:57;;;;;;;2.15;0.98;;;22.00;47.50;;;;;;5035315;28;20025;-69
2024/01/16 10:45:23;;;;;;;1.88;1.00;;;22.00;47.50;;;;;;5035601;28;20489;-68
2024/01/16 10:48:00;;;;;;;1.67;1.00;;;21.90;47.20;;;;;;5037312;28;20025;-69
2024/01/16 10:50:26;;;;;;;3.00;1.30;;;21.90;47.80;;;;;;5037195;28;20580;-68
2024/01/16 10:52:54;;;;;;;3.10;1.50;;;21.90;47.20;;;;;;5036669;28;20040;-69
2024/01/16 10:55:24;;;;;;;2.92;1.52;;;21.80;47.10;;;;;;5037697;28;20030;-65
2024/01/16 10:57:53;;;;;;;3.70;1.90;;;21.80;47.20;;;;;;5037485;28;20053;-65
2024/01/16 11:00:20;;;;;;;4.80;2.20;;;21.80;47.70;;;;;;5037809;28;20036;-65
2024/01/16 11:03:06;;;;;;;3.58;2.10;;;21.80;47.20;;;;;;5037813;28;20133;-66
2024/01/16 11:05:35;;;;;;;4.25;2.60;;;21.70;47.20;;;;;;5038639;28;20358;-65
2024/01/16 11:08:01;;;;;;;;;;;21.70;47.20;;;;;;5036604;28;20086;-64
2024/01/16 11:10:28;;;;;;;4.88;3.00;;;21.60;47.20;;;;;;5036365;28;19909;-65
2024/01/16 11:12:55;;;;;;;5.18;2.72;;;21.60;47.30;;;;;;5036911;28;20033;-65
2024/01/16 11:15:21;;;;;;;4.68;2.80;;;21.60;47.80;;;;;;5037785;28;20477;-65
2024/01/16 11:17:49;;;;;;;5.18;2.83;;;21.60;47.30;;;;;;5038302;28;20100;-65
2024/01/16 11:20:15;;;;;;;4.80;2.80;;;21.60;47.30;;;;;;5034347;28;20469;-65
2024/01/16 11:22:43;;;;;;;5.00;2.83;;;21.50;47.30;;;;;;5038414;28;20108;-65
2024/01/16 11:25:10;;;;;;;5.93;3.00;;;21.50;47.40;;;;;;5037327;28;20520;-65
2024/01/16 11:27:38;;;;;;;4.13;2.80;;;21.50;47.40;;;;;;5037472;28;20026;-66
2024/01/16 11:30:06;;;;;;;3.20;2.00;;;21.40;47.50;;;;;;5039990;28;20017;-66
2024/01/16 11:32:35;;;;;;;4.32;1.95;;;21.40;48.00;;;;;;5036275;28;20718;-66
2024/01/16 11:35:01;;;;;;;4.85;2.17;;;21.40;48.40;;;;;;5035948;28;20064;-66
2024/01/16 11:37:29;;;;;;;4.18;1.90;;;21.40;48.80;;;;;;5051512;28;20045;-65
2024/01/16 11:40:24;;;;;;;3.30;2.05;;;21.40;49.10;;;;;;5036057;28;20098;-65
2024/01/16 11:42:55;;;;;;;2.80;1.90;;;21.40;49.60;;;;;;5035374;28;20025;-65
2024/01/16 11:45:27;;;;;;;3.00;1.80;;;21.40;50.00;;;;;;5035620;28;20041;-65
2024/01/16 11:48:15;;;;;;;3.85;1.92;;;21.40;50.40;;;;;;5032616;28;20042;-64
2024/01/16 11:50:41;;;;;;;3.13;1.70;;;21.50;51.00;;;;;;5036171;28;20040;-62
2024/01/16 11:53:07;;;;;;;3.35;2.03;;;21.50;51.10;;;;;;5041174;28;20490;-61
2024/01/16 11:55:37;;;;;;;2.92;1.73;;;21.50;51.20;;;;;;5047088;28;20089;-64
2024/01/16 11:58:30;;;;;;;3.03;1.75;;;21.50;51.30;;;;;;5052015;28;20125;-62
2024/01/16 12:00:57;;;;;;;3.47;1.60;;;21.50;51.70;;;;;;5050074;28;20021;-62
2024/01/16 12:03:23;;;;;;;3.28;1.90;;;21.50;52.20;;;;;;5039668;28;20072;-63
2024/01/16 12:05:56;;;;;;;5.88;2.70;;;21.60;51.40;;;;;;5038530;28;20033;-64
2024/01/16 12:08:22;;;;;;;6.35;3.00;;;21.50;49.30;;;;;;5040763;28;20435;-63
2024/01/16 12:10:48;;;;;;;4.55;3.10;;;21.50;48.70;;;;;;5038970;28;20094;-63
2024/01/16 12:13:14;;;;;;;6.45;2.90;;;21.50;48.50;;;;;;5042804;28;20497;-62
2024/01/16 12:15:40;;;;;;;5.30;2.83;;;21.50;48.30;;;;;;5039646;28;20063;-62
2024/01/16 12:18:06;;;;;;;5.45;2.90;;;21.40;48.20;;;;;;5037595;28;20021;-63
2024/01/16 12:20:37;;;;;;;5.57;3.20;;;21.40;48.10;;;;;;5037219;28;20537;-64
2024/01/16 12:23:09;;;;;;;4.80;3.00;;;21.40;48.10;;;;;;5040830;28;20106;-65
2024/01/16 12:25:36;;;;;;;5.72;3.30;;;21.40;48.00;;;;;;5042022;28;20025;-64
2024/01/16 12:28:07;;;;;;;5.50;2.83;;;21.30;48.10;;;;;;5037021;28;20458;-62
2024/01/16 12:30:34;;;;;;;5.00;3.00;;;21.30;48.10;;;;;;5041182;28;20129;-63
2024/01/16 12:33:10;;;;;;;5.93;3.20;;;21.30;48.10;;;;;;5040011;28;20038;-61
2024/01/16 12:35:37;;;;;;;5.57;3.58;;;21.30;48.10;;;;;;5039284;28;20060;-64
2024/01/16 12:38:11;;;;;;;7.38;4.40;;;21.30;48.10;;;;;;5041076;28;20033;-70
2024/01/16 12:40:45;;;;;;;8.05;5.25;;;21.30;48.10;;;;;;5038082;28;20547;-65
2024/01/16 12:43:11;;;;;;;8.63;6.20;;;21.20;48.10;;;;;;5038790;28;20104;-64
2024/01/16 12:45:37;;;;;;;8.98;6.70;;;21.20;48.10;;;;;;5039927;28;20470;-65